sensor_id;sensor_type;location;lat;lon;timestamp;temperature;humidity
71184;DHT22;58887;51.980;4.464;2023-07-13T00:00:41;18.50;76.66
71184;DHT22;58887;51.980;4.464;2023-07-13T00:03:07;18.48;76.62
71184;DHT22;58887;51.980;4.464;2023-07-13T00:05:32;18.52;76.01
71184;DHT22;58887;51.980;4.464;2023-07-13T00:07:58;18.50;75.52
71184;DHT22;58887;51.980;4.464;2023-07-13T00:10:23;18.60;75.20
71184;DHT22;58887;51.980;4.464;2023-07-13T00:12:49;18.63;75.07
71184;DHT22;58887;51.980;4.464;2023-07-13T00:15:23;18.60;74.89
71184;DHT22;58887;51.980;4.464;2023-07-13T00:17:50;18.64;74.80
71184;DHT22;58887;51.980;4.464;2023-07-13T00:20:16;18.73;74.61
71184;DHT22;58887;51.980;4.464;2023-07-13T00:22:42;18.76;74.18
71184;DHT22;58887;51.980;4.464;2023-07-13T00:25:10;18.81;74.09
71184;DHT22;58887;51.980;4.464;2023-07-13T00:27:36;18.69;74.26
71184;DHT22;58887;51.980;4.464;2023-07-13T00:30:02;18.77;73.97
71184;DHT22;58887;51.980;4.464;2023-07-13T00:32:27;18.79;73.77
71184;DHT22;58887;51.980;4.464;2023-07-13T00:34:54;18.81;73.91
71184;DHT22;58887;51.980;4.464;2023-07-13T00:37:19;18.77;74.12
71184;DHT22;58887;51.980;4.464;2023-07-13T00:39:45;18.79;73.99
71184;DHT22;58887;51.980;4.464;2023-07-13T00:42:10;18.79;73.95
71184;DHT22;58887;51.980;4.464;2023-07-13T00:44:38;18.80;74.22
71184;DHT22;58887;51.980;4.464;2023-07-13T00:47:05;18.74;74.31
71184;DHT22;58887;51.980;4.464;2023-07-13T00:49:33;18.79;74.08
71184;DHT22;58887;51.980;4.464;2023-07-13T00:52:06;18.67;74.55
71184;DHT22;58887;51.980;4.464;2023-07-13T00:54:37;18.64;75.08
71184;DHT22;58887;51.980;4.464;2023-07-13T00:57:08;18.49;75.66
71184;DHT22;58887;51.980;4.464;2023-07-13T00:59:36;18.49;75.71
71184;DHT22;58887;51.980;4.464;2023-07-13T01:02:04;18.46;75.97
71184;DHT22;58887;51.980;4.464;2023-07-13T01:04:30;18.46;75.97
71184;DHT22;58887;51.980;4.464;2023-07-13T01:06:57;18.42;76.03
71184;DHT22;58887;51.980;4.464;2023-07-13T01:09:26;18.33;76.03
71184;DHT22;58887;51.980;4.464;2023-07-13T01:11:52;18.32;75.69
71184;DHT22;58887;51.980;4.464;2023-07-13T01:14:17;18.25;75.44
71184;DHT22;58887;51.980;4.464;2023-07-13T01:16:46;18.24;75.12
71184;DHT22;58887;51.980;4.464;2023-07-13T01:19:19;18.26;74.84
71184;DHT22;58887;51.980;4.464;2023-07-13T01:21:50;18.25;74.60
71184;DHT22;58887;51.980;4.464;2023-07-13T01:24:16;18.24;74.51
71184;DHT22;58887;51.980;4.464;2023-07-13T01:26:41;18.15;74.66
71184;DHT22;58887;51.980;4.464;2023-07-13T01:29:07;18.16;74.54
71184;DHT22;58887;51.980;4.464;2023-07-13T01:31:33;18.00;74.86
71184;DHT22;58887;51.980;4.464;2023-07-13T01:33:58;17.95;74.44
71184;DHT22;58887;51.980;4.464;2023-07-13T01:36:24;17.90;74.69
71184;DHT22;58887;51.980;4.464;2023-07-13T01:38:50;17.87;74.49
71184;DHT22;58887;51.980;4.464;2023-07-13T01:41:16;17.84;74.07
71184;DHT22;58887;51.980;4.464;2023-07-13T01:43:42;17.84;73.76
71184;DHT22;58887;51.980;4.464;2023-07-13T01:46:07;17.87;73.52
71184;DHT22;58887;51.980;4.464;2023-07-13T01:48:33;17.75;73.35
71184;DHT22;58887;51.980;4.464;2023-07-13T01:50:59;17.85;73.26
71184;DHT22;58887;51.980;4.464;2023-07-13T01:53:25;17.84;73.33
71184;DHT22;58887;51.980;4.464;2023-07-13T01:55:50;17.85;73.19
71184;DHT22;58887;51.980;4.464;2023-07-13T01:58:16;17.84;73.12
71184;DHT22;58887;51.980;4.464;2023-07-13T02:00:41;17.70;73.72
71184;DHT22;58887;51.980;4.464;2023-07-13T02:03:07;17.80;73.36
71184;DHT22;58887;51.980;4.464;2023-07-13T02:05:32;17.77;73.57
71184;DHT22;58887;51.980;4.464;2023-07-13T02:07:57;17.73;74.01
71184;DHT22;58887;51.980;4.464;2023-07-13T02:10:24;17.80;74.07
71184;DHT22;58887;51.980;4.464;2023-07-13T02:12:50;17.66;74.95
71184;DHT22;58887;51.980;4.464;2023-07-13T02:15:16;17.80;74.62
71184;DHT22;58887;51.980;4.464;2023-07-13T02:17:42;17.84;74.85
71184;DHT22;58887;51.980;4.464;2023-07-13T02:20:08;17.88;74.79
71184;DHT22;58887;51.980;4.464;2023-07-13T02:22:35;17.88;75.22
71184;DHT22;58887;51.980;4.464;2023-07-13T02:25:01;17.88;75.50
71184;DHT22;58887;51.980;4.464;2023-07-13T02:27:27;17.85;76.06
71184;DHT22;58887;51.980;4.464;2023-07-13T02:29:53;17.91;76.11
71184;DHT22;58887;51.980;4.464;2023-07-13T02:32:18;17.85;76.71
71184;DHT22;58887;51.980;4.464;2023-07-13T02:34:44;17.85;77.22
71184;DHT22;58887;51.980;4.464;2023-07-13T02:37:10;17.82;77.53
71184;DHT22;58887;51.980;4.464;2023-07-13T02:39:35;17.84;77.80
71184;DHT22;58887;51.980;4.464;2023-07-13T02:42:01;17.84;78.36
71184;DHT22;58887;51.980;4.464;2023-07-13T02:44:27;17.85;78.75
71184;DHT22;58887;51.980;4.464;2023-07-13T02:46:52;17.84;79.02
71184;DHT22;58887;51.980;4.464;2023-07-13T02:49:18;17.90;78.99
71184;DHT22;58887;51.980;4.464;2023-07-13T02:51:54;17.84;79.43
71184;DHT22;58887;51.980;4.464;2023-07-13T02:54:26;17.90;79.53
71184;DHT22;58887;51.980;4.464;2023-07-13T02:56:53;17.98;79.44
71184;DHT22;58887;51.980;4.464;2023-07-13T02:59:25;18.00;79.64
71184;DHT22;58887;51.980;4.464;2023-07-13T03:01:50;17.94;79.59
71184;DHT22;58887;51.980;4.464;2023-07-13T03:04:17;17.95;79.88
71184;DHT22;58887;51.980;4.464;2023-07-13T03:06:45;17.95;79.95
71184;DHT22;58887;51.980;4.464;2023-07-13T03:09:11;17.98;80.19
71184;DHT22;58887;51.980;4.464;2023-07-13T03:11:38;17.95;80.22
71184;DHT22;58887;51.980;4.464;2023-07-13T03:14:04;17.97;80.40
71184;DHT22;58887;51.980;4.464;2023-07-13T03:16:29;17.91;80.61
71184;DHT22;58887;51.980;4.464;2023-07-13T03:18:55;17.88;80.87
71184;DHT22;58887;51.980;4.464;2023-07-13T03:21:20;17.78;81.16
71184;DHT22;58887;51.980;4.464;2023-07-13T03:23:46;17.60;81.80
71184;DHT22;58887;51.980;4.464;2023-07-13T03:26:16;17.75;81.34
71184;DHT22;58887;51.980;4.464;2023-07-13T03:28:42;17.81;81.24
71184;DHT22;58887;51.980;4.464;2023-07-13T03:31:19;17.87;81.42
71184;DHT22;58887;51.980;4.464;2023-07-13T03:33:45;17.88;81.14
71184;DHT22;58887;51.980;4.464;2023-07-13T03:36:18;17.85;81.25
71184;DHT22;58887;51.980;4.464;2023-07-13T03:38:49;17.97;80.91
71184;DHT22;58887;51.980;4.464;2023-07-13T03:41:16;17.94;80.90
71184;DHT22;58887;51.980;4.464;2023-07-13T03:43:42;18.00;80.69
71184;DHT22;58887;51.980;4.464;2023-07-13T03:46:08;17.87;81.07
71184;DHT22;58887;51.980;4.464;2023-07-13T03:48:34;17.98;80.91
71184;DHT22;58887;51.980;4.464;2023-07-13T03:51:00;18.04;80.80
71184;DHT22;58887;51.980;4.464;2023-07-13T03:53:26;17.98;80.87
71184;DHT22;58887;51.980;4.464;2023-07-13T03:55:51;18.04;80.72
71184;DHT22;58887;51.980;4.464;2023-07-13T03:58:30;18.08;80.49
71184;DHT22;58887;51.980;4.464;2023-07-13T04:00:57;18.00;80.71
71184;DHT22;58887;51.980;4.464;2023-07-13T04:03:23;18.01;80.66
71184;DHT22;58887;51.980;4.464;2023-07-13T04:05:49;17.98;80.66
71184;DHT22;58887;51.980;4.464;2023-07-13T04:08:15;18.04;80.70
71184;DHT22;58887;51.980;4.464;2023-07-13T04:10:41;18.09;80.48
71184;DHT22;58887;51.980;4.464;2023-07-13T04:13:07;18.15;80.35
71184;DHT22;58887;51.980;4.464;2023-07-13T04:15:33;18.15;80.27
71184;DHT22;58887;51.980;4.464;2023-07-13T04:17:58;18.21;80.30
71184;DHT22;58887;51.980;4.464;2023-07-13T04:20:25;18.36;79.71
71184;DHT22;58887;51.980;4.464;2023-07-13T04:22:51;18.33;79.56
71184;DHT22;58887;51.980;4.464;2023-07-13T04:25:18;18.36;79.46
71184;DHT22;58887;51.980;4.464;2023-07-13T04:27:44;18.42;79.31
71184;DHT22;58887;51.980;4.464;2023-07-13T04:30:26;18.43;79.09
71184;DHT22;58887;51.980;4.464;2023-07-13T04:32:52;18.42;78.88
71184;DHT22;58887;51.980;4.464;2023-07-13T04:35:19;18.55;78.61
71184;DHT22;58887;51.980;4.464;2023-07-13T04:37:47;18.57;78.43
71184;DHT22;58887;51.980;4.464;2023-07-13T04:40:13;18.56;78.34
71184;DHT22;58887;51.980;4.464;2023-07-13T04:42:38;18.61;77.79
71184;DHT22;58887;51.980;4.464;2023-07-13T04:45:06;18.66;78.06
71184;DHT22;58887;51.980;4.464;2023-07-13T04:47:31;18.70;77.45
71184;DHT22;58887;51.980;4.464;2023-07-13T04:49:57;18.83;77.21
71184;DHT22;58887;51.980;4.464;2023-07-13T04:52:23;19.03;76.52
71184;DHT22;58887;51.980;4.464;2023-07-13T04:54:49;18.98;76.40
71184;DHT22;58887;51.980;4.464;2023-07-13T04:57:14;19.07;75.48
71184;DHT22;58887;51.980;4.464;2023-07-13T04:59:40;19.18;75.31
71184;DHT22;58887;51.980;4.464;2023-07-13T05:02:05;19.27;74.66
71184;DHT22;58887;51.980;4.464;2023-07-13T05:04:31;19.29;74.85
71184;DHT22;58887;51.980;4.464;2023-07-13T05:06:58;19.34;74.06
71184;DHT22;58887;51.980;4.464;2023-07-13T05:09:26;19.34;73.48
71184;DHT22;58887;51.980;4.464;2023-07-13T05:11:52;19.44;73.49
71184;DHT22;58887;51.980;4.464;2023-07-13T05:14:17;19.35;73.30
71184;DHT22;58887;51.980;4.464;2023-07-13T05:16:43;19.31;73.56
71184;DHT22;58887;51.980;4.464;2023-07-13T05:19:09;19.21;73.66
71184;DHT22;58887;51.980;4.464;2023-07-13T05:21:34;19.25;73.49
71184;DHT22;58887;51.980;4.464;2023-07-13T05:24:00;19.18;73.35
71184;DHT22;58887;51.980;4.464;2023-07-13T05:26:25;19.29;72.95
71184;DHT22;58887;51.980;4.464;2023-07-13T05:28:51;19.32;72.93
71184;DHT22;58887;51.980;4.464;2023-07-13T05:31:16;19.34;72.71
71184;DHT22;58887;51.980;4.464;2023-07-13T05:33:42;19.32;72.95
71184;DHT22;58887;51.980;4.464;2023-07-13T05:36:07;19.31;72.68
71184;DHT22;58887;51.980;4.464;2023-07-13T05:38:33;19.39;72.28
71184;DHT22;58887;51.980;4.464;2023-07-13T05:40:58;19.51;72.14
71184;DHT22;58887;51.980;4.464;2023-07-13T05:43:24;19.56;71.86
71184;DHT22;58887;51.980;4.464;2023-07-13T05:45:53;19.70;72.00
71184;DHT22;58887;51.980;4.464;2023-07-13T05:48:20;19.68;71.21
71184;DHT22;58887;51.980;4.464;2023-07-13T05:50:54;19.56;72.03
71184;DHT22;58887;51.980;4.464;2023-07-13T05:53:20;19.63;71.92
71184;DHT22;58887;51.980;4.464;2023-07-13T05:55:47;19.35;72.05
71184;DHT22;58887;51.980;4.464;2023-07-13T05:58:17;19.34;72.49
71184;DHT22;58887;51.980;4.464;2023-07-13T06:00:42;19.38;72.15
71184;DHT22;58887;51.980;4.464;2023-07-13T06:03:08;19.38;72.19
71184;DHT22;58887;51.980;4.464;2023-07-13T06:05:35;19.31;72.58
71184;DHT22;58887;51.980;4.464;2023-07-13T06:08:02;19.21;72.32
71184;DHT22;58887;51.980;4.464;2023-07-13T06:10:27;19.19;72.51
71184;DHT22;58887;51.980;4.464;2023-07-13T06:12:53;19.28;72.29
71184;DHT22;58887;51.980;4.464;2023-07-13T06:15:19;19.31;71.94
71184;DHT22;58887;51.980;4.464;2023-07-13T06:17:44;19.32;72.34
71184;DHT22;58887;51.980;4.464;2023-07-13T06:20:10;19.27;71.61
71184;DHT22;58887;51.980;4.464;2023-07-13T06:22:35;19.54;70.81
71184;DHT22;58887;51.980;4.464;2023-07-13T06:25:01;19.66;70.28
71184;DHT22;58887;51.980;4.464;2023-07-13T06:27:27;19.59;69.67
71184;DHT22;58887;51.980;4.464;2023-07-13T06:29:52;19.72;69.92
71184;DHT22;58887;51.980;4.464;2023-07-13T06:32:17;19.69;69.70
71184;DHT22;58887;51.980;4.464;2023-07-13T06:34:43;19.51;70.21
71184;DHT22;58887;51.980;4.464;2023-07-13T06:37:10;19.51;70.36
71184;DHT22;58887;51.980;4.464;2023-07-13T06:39:35;19.76;69.73
71184;DHT22;58887;51.980;4.464;2023-07-13T06:42:02;19.73;70.13
71184;DHT22;58887;51.980;4.464;2023-07-13T06:44:27;19.92;69.66
71184;DHT22;58887;51.980;4.464;2023-07-13T06:46:53;20.01;68.50
71184;DHT22;58887;51.980;4.464;2023-07-13T06:49:18;19.87;68.63
71184;DHT22;58887;51.980;4.464;2023-07-13T06:51:44;20.12;68.10
71184;DHT22;58887;51.980;4.464;2023-07-13T06:54:09;20.27;67.16
71184;DHT22;58887;51.980;4.464;2023-07-13T06:56:36;20.12;67.43
71184;DHT22;58887;51.980;4.464;2023-07-13T06:59:01;20.23;67.55
71184;DHT22;58887;51.980;4.464;2023-07-13T07:01:27;20.30;67.61
71184;DHT22;58887;51.980;4.464;2023-07-13T07:03:52;20.64;67.05
71184;DHT22;58887;51.980;4.464;2023-07-13T07:06:20;20.75;66.71
71184;DHT22;58887;51.980;4.464;2023-07-13T07:08:48;21.15;65.02
71184;DHT22;58887;51.980;4.464;2023-07-13T07:11:18;21.35;63.84
71184;DHT22;58887;51.980;4.464;2023-07-13T07:13:43;21.30;64.04
71184;DHT22;58887;51.980;4.464;2023-07-13T07:16:09;20.81;65.20
71184;DHT22;58887;51.980;4.464;2023-07-13T07:18:35;20.54;66.48
71184;DHT22;58887;51.980;4.464;2023-07-13T07:21:00;20.48;66.33
71184;DHT22;58887;51.980;4.464;2023-07-13T07:23:26;20.41;66.19
71184;DHT22;58887;51.980;4.464;2023-07-13T07:25:51;20.21;66.63
71184;DHT22;58887;51.980;4.464;2023-07-13T07:28:18;20.23;66.96
71184;DHT22;58887;51.980;4.464;2023-07-13T07:30:47;20.28;67.21
71184;DHT22;58887;51.980;4.464;2023-07-13T07:33:14;20.63;67.09
71184;DHT22;58887;51.980;4.464;2023-07-13T07:35:43;20.96;66.00
71184;DHT22;58887;51.980;4.464;2023-07-13T07:38:09;20.96;64.65
71184;DHT22;58887;51.980;4.464;2023-07-13T07:40:40;20.71;65.66
71184;DHT22;58887;51.980;4.464;2023-07-13T07:43:07;20.38;67.08
71184;DHT22;58887;51.980;4.464;2023-07-13T07:45:33;20.27;67.02
71184;DHT22;58887;51.980;4.464;2023-07-13T07:48:01;20.44;67.18
71184;DHT22;58887;51.980;4.464;2023-07-13T07:50:28;20.28;67.13
71184;DHT22;58887;51.980;4.464;2023-07-13T07:52:54;20.55;66.95
71184;DHT22;58887;51.980;4.464;2023-07-13T07:55:22;20.68;66.63
71184;DHT22;58887;51.980;4.464;2023-07-13T07:57:48;20.44;66.04
71184;DHT22;58887;51.980;4.464;2023-07-13T08:00:15;19.93;66.77
71184;DHT22;58887;51.980;4.464;2023-07-13T08:02:41;20.03;66.62
71184;DHT22;58887;51.980;4.464;2023-07-13T08:05:07;20.48;65.89
71184;DHT22;58887;51.980;4.464;2023-07-13T08:07:37;20.98;63.76
71184;DHT22;58887;51.980;4.464;2023-07-13T08:10:03;21.19;62.73
71184;DHT22;58887;51.980;4.464;2023-07-13T08:12:29;21.54;61.93
71184;DHT22;58887;51.980;4.464;2023-07-13T08:14:54;21.32;62.23
71184;DHT22;58887;51.980;4.464;2023-07-13T08:17:23;21.53;62.27
71184;DHT22;58887;51.980;4.464;2023-07-13T08:19:49;21.35;62.29
71184;DHT22;58887;51.980;4.464;2023-07-13T08:22:14;21.09;63.34
71184;DHT22;58887;51.980;4.464;2023-07-13T08:24:40;20.81;64.12
71184;DHT22;58887;51.980;4.464;2023-07-13T08:27:08;20.91;64.66
71184;DHT22;58887;51.980;4.464;2023-07-13T08:29:33;20.63;65.40
71184;DHT22;58887;51.980;4.464;2023-07-13T08:31:59;20.76;65.50
71184;DHT22;58887;51.980;4.464;2023-07-13T08:34:24;20.72;65.64
71184;DHT22;58887;51.980;4.464;2023-07-13T08:36:51;20.79;64.63
71184;DHT22;58887;51.980;4.464;2023-07-13T08:39:16;20.57;64.97
71184;DHT22;58887;51.980;4.464;2023-07-13T08:41:51;20.65;63.81
71184;DHT22;58887;51.980;4.464;2023-07-13T08:47:10;21.88;60.41
71184;DHT22;58887;51.980;4.464;2023-07-13T08:49:37;21.95;60.54
71184;DHT22;58887;51.980;4.464;2023-07-13T08:52:36;21.80;58.72
71184;DHT22;58887;51.980;4.464;2023-07-13T08:55:27;21.87;58.82
71184;DHT22;58887;51.980;4.464;2023-07-13T08:58:11;21.74;59.27
71184;DHT22;58887;51.980;4.464;2023-07-13T09:01:20;21.90;59.30
71184;DHT22;58887;51.980;4.464;2023-07-13T09:04:18;22.33;59.08
71184;DHT22;58887;51.980;4.464;2023-07-13T09:09:54;21.30;62.21
71184;DHT22;58887;51.980;4.464;2023-07-13T09:12:53;21.18;63.51
71184;DHT22;58887;51.980;4.464;2023-07-13T09:15:27;21.05;64.73
71184;DHT22;58887;51.980;4.464;2023-07-13T09:20:50;20.64;66.68
71184;DHT22;58887;51.980;4.464;2023-07-13T09:23:21;20.30;64.28
71184;DHT22;58887;51.980;4.464;2023-07-13T09:25:49;19.90;64.86
71184;DHT22;58887;51.980;4.464;2023-07-13T09:28:29;19.59;67.02
71184;DHT22;58887;51.980;4.464;2023-07-13T09:31:09;19.66;67.42
71184;DHT22;58887;51.980;4.464;2023-07-13T09:33:39;19.80;67.57
71184;DHT22;58887;51.980;4.464;2023-07-13T09:44:33;21.22;65.36
71184;DHT22;58887;51.980;4.464;2023-07-13T09:46:59;21.51;64.81
71184;DHT22;58887;51.980;4.464;2023-07-13T09:49:35;21.57;64.03
71184;DHT22;58887;51.980;4.464;2023-07-13T09:52:05;22.06;62.65
71184;DHT22;58887;51.980;4.464;2023-07-13T09:54:34;22.26;61.60
71184;DHT22;58887;51.980;4.464;2023-07-13T09:57:02;22.39;62.47
71184;DHT22;58887;51.980;4.464;2023-07-13T09:59:34;22.79;61.26
71184;DHT22;58887;51.980;4.464;2023-07-13T10:02:00;22.69;59.14
71184;DHT22;58887;51.980;4.464;2023-07-13T10:04:34;22.86;58.80
71184;DHT22;58887;51.980;4.464;2023-07-13T10:07:08;23.51;57.86
71184;DHT22;58887;51.980;4.464;2023-07-13T10:09:34;23.22;58.57
71184;DHT22;58887;51.980;4.464;2023-07-13T10:12:00;23.25;58.09
71184;DHT22;58887;51.980;4.464;2023-07-13T10:14:27;23.54;57.44
71184;DHT22;58887;51.980;4.464;2023-07-13T10:17:00;24.24;55.78
71184;DHT22;58887;51.980;4.464;2023-07-13T10:19:34;24.27;56.28
71184;DHT22;58887;51.980;4.464;2023-07-13T10:22:02;24.09;55.57
71184;DHT22;58887;51.980;4.464;2023-07-13T10:24:37;23.42;57.05
71184;DHT22;58887;51.980;4.464;2023-07-13T10:27:20;22.02;60.77
71184;DHT22;58887;51.980;4.464;2023-07-13T10:29:51;22.57;57.63
71184;DHT22;58887;51.980;4.464;2023-07-13T10:32:21;23.50;54.46
71184;DHT22;58887;51.980;4.464;2023-07-13T10:34:49;24.05;52.36
71184;DHT22;58887;51.980;4.464;2023-07-13T10:37:24;24.26;51.21
71184;DHT22;58887;51.980;4.464;2023-07-13T10:39:55;24.37;51.97
71184;DHT22;58887;51.980;4.464;2023-07-13T10:42:43;24.95;51.05
71184;DHT22;58887;51.980;4.464;2023-07-13T10:45:16;25.07;49.25
71184;DHT22;58887;51.980;4.464;2023-07-13T10:47:44;24.47;50.09
71184;DHT22;58887;51.980;4.464;2023-07-13T10:50:29;24.74;50.85
71184;DHT22;58887;51.980;4.464;2023-07-13T10:53:03;24.79;51.06
71184;DHT22;58887;51.980;4.464;2023-07-13T10:58:22;25.39;46.63
71184;DHT22;58887;51.980;4.464;2023-07-13T11:03:46;24.53;49.56
71184;DHT22;58887;51.980;4.464;2023-07-13T11:19:18;24.56;49.61
71184;DHT22;58887;51.980;4.464;2023-07-13T11:22:01;24.79;48.88
71184;DHT22;58887;51.980;4.464;2023-07-13T11:27:36;24.74;49.33
71184;DHT22;58887;51.980;4.464;2023-07-13T11:32:40;25.05;48.17
71184;DHT22;58887;51.980;4.464;2023-07-13T11:35:16;24.67;47.93
71184;DHT22;58887;51.980;4.464;2023-07-13T11:37:45;24.91;49.50
71184;DHT22;58887;51.980;4.464;2023-07-13T11:40:14;24.50;48.22
71184;DHT22;58887;51.980;4.464;2023-07-13T11:42:39;24.27;48.72
71184;DHT22;58887;51.980;4.464;2023-07-13T11:45:19;25.20;46.61
71184;DHT22;58887;51.980;4.464;2023-07-13T11:47:49;25.16;46.33
71184;DHT22;58887;51.980;4.464;2023-07-13T11:50:20;24.92;47.01
71184;DHT22;58887;51.980;4.464;2023-07-13T11:52:47;25.51;46.11
71184;DHT22;58887;51.980;4.464;2023-07-13T11:55:18;25.35;44.67
71184;DHT22;58887;51.980;4.464;2023-07-13T11:57:51;25.30;45.16
71184;DHT22;58887;51.980;4.464;2023-07-13T12:00:22;25.49;46.13
71184;DHT22;58887;51.980;4.464;2023-07-13T12:02:52;25.83;45.74
71184;DHT22;58887;51.980;4.464;2023-07-13T12:05:19;25.45;46.55
71184;DHT22;58887;51.980;4.464;2023-07-13T12:07:50;25.42;46.58
71184;DHT22;58887;51.980;4.464;2023-07-13T12:10:30;26.07;45.86
71184;DHT22;58887;51.980;4.464;2023-07-13T12:13:01;26.34;45.50
71184;DHT22;58887;51.980;4.464;2023-07-13T12:15:39;26.48;45.23
71184;DHT22;58887;51.980;4.464;2023-07-13T12:18:22;25.56;45.53
71184;DHT22;58887;51.980;4.464;2023-07-13T12:20:50;24.96;48.09
71184;DHT22;58887;51.980;4.464;2023-07-13T12:23:31;24.94;47.47
71184;DHT22;58887;51.980;4.464;2023-07-13T12:25:59;25.39;46.05
71184;DHT22;58887;51.980;4.464;2023-07-13T12:28:35;25.74;45.88
71184;DHT22;58887;51.980;4.464;2023-07-13T12:31:04;26.36;42.93
71184;DHT22;58887;51.980;4.464;2023-07-13T12:33:31;26.36;43.70
71184;DHT22;58887;51.980;4.464;2023-07-13T12:36:01;27.23;42.16
71184;DHT22;58887;51.980;4.464;2023-07-13T12:38:28;26.66;44.30
71184;DHT22;58887;51.980;4.464;2023-07-13T12:40:53;27.33;43.71
71184;DHT22;58887;51.980;4.464;2023-07-13T12:43:23;27.35;42.14
71184;DHT22;58887;51.980;4.464;2023-07-13T12:46:02;27.59;41.66
71184;DHT22;58887;51.980;4.464;2023-07-13T12:48:28;27.81;41.59
71184;DHT22;58887;51.980;4.464;2023-07-13T12:50:55;27.15;42.32
71184;DHT22;58887;51.980;4.464;2023-07-13T12:53:30;27.00;43.40
71184;DHT22;58887;51.980;4.464;2023-07-13T12:56:02;27.30;41.38
71184;DHT22;58887;51.980;4.464;2023-07-13T12:58:32;27.47;40.91
71184;DHT22;58887;51.980;4.464;2023-07-13T13:01:03;27.65;39.05
71184;DHT22;58887;51.980;4.464;2023-07-13T13:03:39;27.58;40.01
71184;DHT22;58887;51.980;4.464;2023-07-13T13:08:50;27.96;42.19
71184;DHT22;58887;51.980;4.464;2023-07-13T13:11:16;28.06;38.73
71184;DHT22;58887;51.980;4.464;2023-07-13T13:13:42;27.55;40.63
71184;DHT22;58887;51.980;4.464;2023-07-13T13:16:29;27.30;41.89
71184;DHT22;58887;51.980;4.464;2023-07-13T13:19:45;27.57;39.83
71184;DHT22;58887;51.980;4.464;2023-07-13T13:21:47;27.91;38.58
71184;DHT22;58887;51.980;4.464;2023-07-13T13:24:19;27.55;39.80
71184;DHT22;58887;51.980;4.464;2023-07-13T13:26:46;27.58;40.01
71184;DHT22;58887;51.980;4.464;2023-07-13T13:29:21;28.22;39.44
71184;DHT22;58887;51.980;4.464;2023-07-13T13:31:49;27.95;40.51
71184;DHT22;58887;51.980;4.464;2023-07-13T13:34:16;27.33;41.37
71184;DHT22;58887;51.980;4.464;2023-07-13T13:36:43;27.47;39.33
71184;DHT22;58887;51.980;4.464;2023-07-13T13:39:21;27.50;40.75
71184;DHT22;58887;51.980;4.464;2023-07-13T13:41:49;27.58;39.63
71184;DHT22;58887;51.980;4.464;2023-07-13T13:44:16;27.80;39.44
71184;DHT22;58887;51.980;4.464;2023-07-13T13:46:45;27.30;41.64
71184;DHT22;58887;51.980;4.464;2023-07-13T13:49:18;26.99;42.61
71184;DHT22;58887;51.980;4.464;2023-07-13T13:51:46;26.80;42.19
71184;DHT22;58887;51.980;4.464;2023-07-13T13:54:13;27.02;43.22
71184;DHT22;58887;51.980;4.464;2023-07-13T13:56:44;27.22;42.25
71184;DHT22;58887;51.980;4.464;2023-07-13T13:59:11;26.57;43.59
71184;DHT22;58887;51.980;4.464;2023-07-13T14:01:38;26.62;44.43
71184;DHT22;58887;51.980;4.464;2023-07-13T14:04:04;26.35;44.84
71184;DHT22;58887;51.980;4.464;2023-07-13T14:06:31;26.14;44.14
71184;DHT22;58887;51.980;4.464;2023-07-13T14:08:57;26.90;43.03
71184;DHT22;58887;51.980;4.464;2023-07-13T14:11:23;26.32;43.96
71184;DHT22;58887;51.980;4.464;2023-07-13T14:13:59;26.75;43.27
71184;DHT22;58887;51.980;4.464;2023-07-13T14:16:30;26.87;44.28
71184;DHT22;58887;51.980;4.464;2023-07-13T14:19:00;26.57;44.88
71184;DHT22;58887;51.980;4.464;2023-07-13T14:21:27;26.24;44.70
71184;DHT22;58887;51.980;4.464;2023-07-13T14:23:54;25.97;45.01
71184;DHT22;58887;51.980;4.464;2023-07-13T14:26:25;25.30;46.45
71184;DHT22;58887;51.980;4.464;2023-07-13T14:28:56;26.41;45.81
71184;DHT22;58887;51.980;4.464;2023-07-13T14:31:25;27.27;44.19
71184;DHT22;58887;51.980;4.464;2023-07-13T14:33:51;27.59;42.85
71184;DHT22;58887;51.980;4.464;2023-07-13T14:36:29;26.99;43.49
71184;DHT22;58887;51.980;4.464;2023-07-13T14:38:57;26.02;46.70
71184;DHT22;58887;51.980;4.464;2023-07-13T14:41:23;26.65;45.32
71184;DHT22;58887;51.980;4.464;2023-07-13T14:43:49;26.42;45.97
71184;DHT22;58887;51.980;4.464;2023-07-13T14:46:28;26.63;45.50
71184;DHT22;58887;51.980;4.464;2023-07-13T14:49:05;26.34;45.86
71184;DHT22;58887;51.980;4.464;2023-07-13T14:51:33;26.99;45.11
71184;DHT22;58887;51.980;4.464;2023-07-13T14:54:03;26.76;45.33
71184;DHT22;58887;51.980;4.464;2023-07-13T14:56:29;25.63;48.06
71184;DHT22;58887;51.980;4.464;2023-07-13T14:58:54;26.01;47.74
71184;DHT22;58887;51.980;4.464;2023-07-13T15:01:21;26.18;47.04
71184;DHT22;58887;51.980;4.464;2023-07-13T15:03:51;26.21;46.81
71184;DHT22;58887;51.980;4.464;2023-07-13T15:06:17;26.36;46.59
71184;DHT22;58887;51.980;4.464;2023-07-13T15:08:45;26.87;46.63
71184;DHT22;58887;51.980;4.464;2023-07-13T15:11:12;26.17;46.42
71184;DHT22;58887;51.980;4.464;2023-07-13T15:13:39;26.31;45.82
71184;DHT22;58887;51.980;4.464;2023-07-13T15:16:15;25.91;47.41
71184;DHT22;58887;51.980;4.464;2023-07-13T15:18:41;26.26;47.42
71184;DHT22;58887;51.980;4.464;2023-07-13T15:21:11;26.86;46.84
71184;DHT22;58887;51.980;4.464;2023-07-13T15:23:40;25.77;47.32
71184;DHT22;58887;51.980;4.464;2023-07-13T15:26:11;26.21;47.79
71184;DHT22;58887;51.980;4.464;2023-07-13T15:28:38;25.88;46.42
71184;DHT22;58887;51.980;4.464;2023-07-13T15:31:19;25.86;47.62
71184;DHT22;58887;51.980;4.464;2023-07-13T15:33:46;26.32;45.77
71184;DHT22;58887;51.980;4.464;2023-07-13T15:36:18;26.44;46.18
71184;DHT22;58887;51.980;4.464;2023-07-13T15:38:45;26.02;46.31
71184;DHT22;58887;51.980;4.464;2023-07-13T15:41:24;26.00;47.09
71184;DHT22;58887;51.980;4.464;2023-07-13T15:43:55;26.28;46.54
71184;DHT22;58887;51.980;4.464;2023-07-13T15:46:25;26.96;45.03
71184;DHT22;58887;51.980;4.464;2023-07-13T15:48:52;27.14;44.52
71184;DHT22;58887;51.980;4.464;2023-07-13T15:53:54;26.56;45.55
71184;DHT22;58887;51.980;4.464;2023-07-13T15:56:26;26.90;45.73
71184;DHT22;58887;51.980;4.464;2023-07-13T15:58:53;26.85;44.75
71184;DHT22;58887;51.980;4.464;2023-07-13T16:01:19;27.26;46.18
71184;DHT22;58887;51.980;4.464;2023-07-13T16:03:46;27.50;45.10
71184;DHT22;58887;51.980;4.464;2023-07-13T16:08:40;25.15;48.37
71184;DHT22;58887;51.980;4.464;2023-07-13T16:11:20;25.29;49.81
71184;DHT22;58887;51.980;4.464;2023-07-13T16:13:48;25.50;49.34
71184;DHT22;58887;51.980;4.464;2023-07-13T16:16:22;25.80;48.60
71184;DHT22;58887;51.980;4.464;2023-07-13T16:18:52;25.30;49.35
71184;DHT22;58887;51.980;4.464;2023-07-13T16:21:20;24.58;50.62
71184;DHT22;58887;51.980;4.464;2023-07-13T16:23:45;23.59;52.09
71184;DHT22;58887;51.980;4.464;2023-07-13T16:26:28;23.55;53.10
71184;DHT22;58887;51.980;4.464;2023-07-13T16:28:54;23.50;54.29